Terminal Aerodrome Forecast
Issued by NWS Sioux Falls, SD

Home | Current Version | Previous Version | Graphics & Text | Print | Product List | Glossary On
Versions: 1 2 3 4 5 6 7 8 9 10 11 12 13 14 15 16 17 18 19 20 21 22 23 24 25 26 27 28 29
000
FTUS43 KFSD 022340
TAFSUX
TAF
KSUX 022340Z 0300/0324 17015G25KT P6SM SCT040 SCT250
     FM030300 18012G18KT P6SM BKN040 OVC100
     FM030800 18013G20KT P6SM TSRA BKN040CB OVC250
     FM031000 16011KT P6SM SCT025 BKN100
     FM032000 VRB05KT P6SM SCT025 OVC050=

USA.gov is the U.S. government's official web portal to all federal, state and local government web resources and services.